Peotone Weather
Peotone-Weather Station Historical Data
 
Daily Summary for July 07, 2020 Units:  English    Metric   Both
Daily Weekly Monthly Yearly Custom
  Current: High: Low: Average:
Temperature: 91.9 °F 94.2 °F 70.1 °F 82.3 °F
Dew Point: 69.4 °F 74.7 °F 65.7 °F 70.6 °F
Humidity: 48% 96% 40.6% 71%
Wind Speed: 3.7mph 8.6mph 0mph 2.8mph
Wind Gust: 9.2mph 17.2mph - -
WindSouth - - SSW
Pressure: 29.86 in 29.97 in 29.86 in -
Precipitation: 0.00 in      
Historical Graphs
 
 
Tabular Data for July 07, 2020
Time Temperature Dew Point Pressure Wind Wind Speed Wind Gust Humidity Rainfall Rate (Hourly) solar
00:04 76.2 °F 69.9 °F 29.97 in Calm   3.4 mph 81% 0.00 in 0 W/m2
00:09 76.1 °F 69.8 °F 29.97 in Calm   1.1 mph 81% 0.00 in 0 W/m2
00:14 75.9 °F 69.7 °F 29.97 in SSW 0.1 mph 1.1 mph 81% 0.00 in 0 W/m2
00:19 75.9 °F 69.9 °F 29.97 in SSW 0.1 mph 1.1 mph 81.6% 0.00 in 0 W/m2
00:24 76.1 °F 69.8 °F 29.97 in Calm   1.1 mph 81% 0.00 in 0 W/m2
00:29 75.8 °F 69.7 °F 29.97 in Calm     81.4% 0.00 in 0 W/m2
00:34 75.4 °F 69.6 °F 29.96 in SSW 0.2 mph 1.1 mph 82.3% 0.00 in 0 W/m2
00:39 75.1 °F 69.6 °F 29.96 in Calm   1.1 mph 83% 0.00 in 0 W/m2
00:44 75 °F 69.8 °F 29.96 in SSW 0.1 mph 1.1 mph 84% 0.00 in 0 W/m2
00:49 75.3 °F 69.8 °F 29.96 in Calm   1.1 mph 83.1% 0.00 in 0 W/m2
00:54 75.3 °F 69.8 °F 29.96 in Calm   1.1 mph 83.1% 0.00 in 0 W/m2
00:59 74.9 °F 69.8 °F 29.96 in SSE 1.2 mph 3.4 mph 84.2% 0.00 in 0 W/m2
01:04 75 °F 70.1 °F 29.96 in SE 0.9 mph 3.4 mph 84.8% 0.00 in 0 W/m2
01:09 74.7 °F 69.9 °F 29.96 in Calm   3.4 mph 85.1% 0.00 in 0 W/m2
01:14 74.1 °F 69.7 °F 29.96 in Calm     86.1% 0.00 in 0 W/m2
01:19 73.6 °F 69.5 °F 29.96 in Calm     87% 0.00 in 0 W/m2
01:24 73.3 °F 69.6 °F 29.96 in Calm     88% 0.00 in 0 W/m2
01:29 73.2 °F 69.4 °F 29.96 in Calm   1.1 mph 88% 0.00 in 0 W/m2
01:34 73 °F 69.5 °F 29.96 in Calm   1.1 mph 89% 0.00 in 0 W/m2
01:39 72.8 °F 69.3 °F 29.95 in Calm     89% 0.00 in 0 W/m2
01:44 72.7 °F 69.3 °F 29.95 in Calm     89% 0.00 in 0 W/m2
01:49 72.6 °F 69.2 °F 29.95 in Calm     89.2% 0.00 in 0 W/m2
01:54 72.5 °F 69.3 °F 29.95 in Calm     89.7% 0.00 in 0 W/m2
01:59 72.5 °F 69.4 °F 29.95 in Calm     90% 0.00 in 0 W/m2
02:04 72.3 °F 69.4 °F 29.95 in Calm     90.5% 0.00 in 0 W/m2
02:09 72.3 °F 69.4 °F 29.95 in Calm     90.4% 0.00 in 0 W/m2
02:14 72.2 °F 69.4 °F 29.94 in Calm     91% 0.00 in 0 W/m2
02:19 72.2 °F 69.4 °F 29.94 in Calm     91% 0.00 in 0 W/m2
02:24 72.4 °F 69.6 °F 29.94 in Calm     90.7% 0.00 in 0 W/m2
02:29 72.4 °F 69.4 °F 29.94 in Calm     90.2% 0.00 in 0 W/m2
02:34 72.3 °F 69.5 °F 29.94 in Calm     91% 0.00 in 0 W/m2
02:39 72.1 °F 69.4 °F 29.94 in Calm     91.2% 0.00 in 0 W/m2
02:44 72.1 °F 69.6 °F 29.94 in Calm     92% 0.00 in 0 W/m2
02:49 71.9 °F 69.4 °F 29.94 in Calm     92% 0.00 in 0 W/m2
02:54 71.8 °F 69.5 °F 29.93 in Calm     92.5% 0.00 in 0 W/m2
02:59 71.7 °F 69.3 °F 29.93 in SE 0.4 mph 2.3 mph 92.4% 0.00 in 0 W/m2
03:04 71.8 °F 69.5 °F 29.93 in SE 1.5 mph 3.4 mph 92.6% 0.00 in 0 W/m2
03:09 71.8 °F 69.2 °F 29.93 in ESE 0.9 mph 4.6 mph 91.5% 0.00 in 0 W/m2
03:14 71.4 °F 68.9 °F 29.93 in ESE 0.7 mph 4.6 mph 91.8% 0.00 in 0 W/m2
03:19 71.1 °F 68.9 °F 29.93 in SE 1.7 mph 4.6 mph 92.5% 0.00 in 0 W/m2
03:24 70.9 °F 68.8 °F 29.93 in SE 0.1 mph 4.6 mph 93% 0.00 in 0 W/m2
03:29 70.8 °F 68.7 °F 29.93 in Calm   1.1 mph 93.3% 0.00 in 0 W/m2
03:34 70.6 °F 68.5 °F 29.93 in SE 0.2 mph 2.3 mph 93.2% 0.00 in 0 W/m2
03:39 70.6 °F 68.8 °F 29.93 in SE 0.2 mph 2.3 mph 94% 0.00 in 0 W/m2
03:44 70.5 °F 68.7 °F 29.93 in SE 0.9 mph 2.3 mph 94% 0.00 in 0 W/m2
03:49 70.7 °F 68.9 °F 29.93 in SE 0.4 mph 2.3 mph 94% 0.00 in 0 W/m2
03:54 70.7 °F 68.9 °F 29.93 in SE 0.6 mph 2.3 mph 94% 0.00 in 0 W/m2
03:59 70.6 °F 68.8 °F 29.93 in SE 1.1 mph 3.4 mph 94% 0.00 in 0 W/m2
04:04 70.6 °F 69 °F 29.93 in ESE 1 mph 3.4 mph 94.7% 0.00 in 0 W/m2
04:09 70.8 °F 69.3 °F 29.93 in ESE 1.1 mph 3.4 mph 95% 0.00 in 0 W/m2
04:14 70.9 °F 69.1 °F 29.93 in ESE 0.1 mph 2.3 mph 94.2% 0.00 in 0 W/m2
04:19 70.6 °F 68.8 °F 29.93 in Calm   1.1 mph 94% 0.00 in 0 W/m2
04:24 70.4 °F 68.9 °F 29.94 in Calm   2.3 mph 95% 0.00 in 0 W/m2
04:29 70.4 °F 68.9 °F 29.94 in Calm     95% 0.00 in 0 W/m2
04:34 70.3 °F 68.8 °F 29.94 in Calm     95% 0.00 in 0 W/m2
04:39 70.3 °F 68.8 °F 29.94 in Calm     95.2% 0.00 in 0 W/m2
04:44 70.2 °F 68.9 °F 29.93 in Calm     95.9% 0.00 in 0 W/m2
04:49 70.3 °F 69.1 °F 29.94 in Calm     96% 0.00 in 0 W/m2
04:54 70.3 °F 69 °F 29.94 in Calm     95.7% 0.00 in 0 W/m2
04:59 70.2 °F 69 °F 29.94 in Calm     96% 0.00 in 0 W/m2
05:04 70.2 °F 69 °F 29.94 in ESE 0.1 mph 2.3 mph 96% 0.00 in 0 W/m2
05:09 70.1 °F 68.9 °F 29.95 in ESE 1.1 mph 2.3 mph 96% 0.00 in 0 W/m2
05:14 70.2 °F 69 °F 29.95 in SE 1.6 mph 3.4 mph 96% 0.00 in 0 W/m2
05:19 70.3 °F 69.1 °F 29.95 in SE 0.4 mph 3.4 mph 96% 0.00 in 0 W/m2
05:24 70.4 °F 69.2 °F 29.95 in SE 0.7 mph 3.4 mph 96% 0.00 in 0 W/m2
05:29 70.4 °F 69.3 °F 29.95 in SSE 1.1 mph 3.4 mph 96% 0.00 in 5 W/m2
05:34 70.5 °F 69.3 °F 29.95 in South 1.2 mph 3.4 mph 95.8% 0.00 in 7 W/m2
05:39 70.8 °F 69.6 °F 29.95 in South 1.1 mph 3.4 mph 95.8% 0.00 in 11 W/m2
05:44 71.1 °F 69.7 °F 29.95 in South 1.4 mph 3.4 mph 95.3% 0.00 in 12 W/m2
05:49 71.3 °F 69.8 °F 29.96 in South 1.6 mph 4.6 mph 95% 0.00 in 16 W/m2
05:54 71.3 °F 69.8 °F 29.96 in South 0.5 mph 4.6 mph 95% 0.00 in 19 W/m2
05:59 71.4 °F 69.9 °F 29.96 in South 0.4 mph 2.3 mph 95% 0.00 in 23 W/m2
06:04 71.6 °F 70 °F 29.96 in South 0.1 mph 2.3 mph 94.7% 0.00 in 26 W/m2
06:09 71.7 °F 70.1 °F 29.96 in South 2 mph 3.4 mph 94.5% 0.00 in 30 W/m2
06:14 72 °F 70.1 °F 29.96 in SSW 0.9 mph 3.4 mph 94% 0.00 in 32 W/m2
06:19 72.3 °F 70.5 °F 29.96 in SSW 0.9 mph 2.3 mph 93.9% 0.00 in 44 W/m2
06:24 72.8 °F 70.5 °F 29.97 in SSW 1 mph 3.4 mph 92.8% 0.00 in 63 W/m2
06:29 72.9 °F 70.7 °F 29.97 in SSW 0.4 mph 3.4 mph 92.9% 0.00 in 72 W/m2
06:34 73.3 °F 70.7 °F 29.97 in SSW 1.9 mph 4.6 mph 91.6% 0.00 in 95 W/m2
06:39 73.8 °F 70.9 °F 29.97 in SSW 2.5 mph 5.8 mph 90.8% 0.00 in 74 W/m2
06:44 74 °F 70.8 °F 29.97 in SW 2.6 mph 5.8 mph 89.7% 0.00 in 104 W/m2
06:49 74.4 °F 70.9 °F 29.97 in SSW 3.3 mph 5.8 mph 88.6% 0.00 in 141 W/m2
06:54 74.9 °F 70.9 °F 29.97 in SSW 2.7 mph 5.8 mph 87.3% 0.00 in 151 W/m2
06:59 75.3 °F 71.1 °F 29.97 in SSW 2.7 mph 4.6 mph 86.8% 0.00 in 160 W/m2
07:04 75.6 °F 71.2 °F 29.97 in SSW 3.3 mph 5.8 mph 86.3% 0.00 in 178 W/m2
07:09 75.9 °F 71.3 °F 29.97 in SSW 3.2 mph 5.8 mph 85.7% 0.00 in 199 W/m2
07:14 76.1 °F 71.4 °F 29.97 in SSW 3.2 mph 4.6 mph 85.3% 0.00 in 214 W/m2
07:19 76.4 °F 71.5 °F 29.97 in SSW 3.6 mph 4.6 mph 85% 0.00 in 229 W/m2
07:24 76.7 °F 71.6 °F 29.97 in SSW 2.8 mph 5.8 mph 84.3% 0.00 in 250 W/m2
07:29 76.9 °F 71.9 °F 29.97 in SSW 3.3 mph 5.8 mph 84.7% 0.00 in 264 W/m2
07:34 77.2 °F 72 °F 29.97 in SSW 3.7 mph 5.8 mph 84.1% 0.00 in 272 W/m2
07:39 77.4 °F 72.2 °F 29.97 in SSW 2.6 mph 5.8 mph 84% 0.00 in 292 W/m2
07:44 77.7 °F 72.5 °F 29.97 in SSW 2.6 mph 4.6 mph 84.2% 0.00 in 311 W/m2
07:49 78.1 °F 72.7 °F 29.97 in SSW 1.1 mph 4.6 mph 83.5% 0.00 in 318 W/m2
07:54 78.6 °F 73 °F 29.97 in SSW 1 mph 3.4 mph 82.9% 0.00 in 339 W/m2
07:59 79.1 °F 73.1 °F 29.97 in SSW 1 mph 2.3 mph 82% 0.00 in 355 W/m2
08:04 79.5 °F 73.3 °F 29.97 in SSW 2.3 mph 3.4 mph 81.2% 0.00 in 366 W/m2
08:09 80.1 °F 73.5 °F 29.97 in SSW 2.2 mph 4.6 mph 80.3% 0.00 in 381 W/m2
08:14 80.4 °F 73.5 °F 29.96 in SSW 2.6 mph 5.8 mph 79.6% 0.00 in 399 W/m2
08:19 80.6 °F 73.4 °F 29.97 in South 2.3 mph 5.8 mph 78.6% 0.00 in 418 W/m2
08:24 80.9 °F 73.5 °F 29.97 in South 2.9 mph 5.8 mph 78.4% 0.00 in 427 W/m2
08:29 81.1 °F 73.7 °F 29.97 in SSW 3.1 mph 5.8 mph 78.1% 0.00 in 441 W/m2
08:34 81.5 °F 74.1 °F 29.97 in South 2.5 mph 5.8 mph 78.3% 0.00 in 454 W/m2
08:39 81.9 °F 74.1 °F 29.97 in SSW 2.1 mph 4.6 mph 77.2% 0.00 in 469 W/m2
08:44 82.1 °F 74.1 °F 29.97 in SSW 2.5 mph 5.8 mph 76.8% 0.00 in 483 W/m2
08:49 82.2 °F 73.9 °F 29.97 in SW 2.3 mph 5.8 mph 76% 0.00 in 497 W/m2
08:54 82.4 °F 74 °F 29.97 in SSW 1.7 mph 4.6 mph 75.8% 0.00 in 515 W/m2
08:59 82.7 °F 73.6 °F 29.97 in SSW 1.4 mph 4.6 mph 74.2% 0.00 in 531 W/m2
09:04 82.8 °F 73.9 °F 29.97 in South 2.3 mph 5.8 mph 74.6% 0.00 in 545 W/m2
09:09 83.1 °F 73.8 °F 29.97 in South 1.8 mph 5.8 mph 73.6% 0.00 in 559 W/m2
09:14 83.6 °F 74.7 °F 29.97 in SSW 1.6 mph 5.8 mph 74.7% 0.00 in 570 W/m2
09:19 83.6 °F 74.1 °F 29.97 in SSW 1.6 mph 4.6 mph 73.3% 0.00 in 587 W/m2
09:24 83.9 °F 74.1 °F 29.97 in SSW 2.1 mph 4.6 mph 72.3% 0.00 in 603 W/m2
09:29 84.3 °F 73.9 °F 29.97 in SW 2.1 mph 5.8 mph 71.1% 0.00 in 617 W/m2
09:34 84.9 °F 74.4 °F 29.97 in SSW 3 mph 5.8 mph 70.8% 0.00 in 626 W/m2
09:39 85.6 °F 74 °F 29.97 in SSW 3.1 mph 6.9 mph 68.5% 0.00 in 640 W/m2
09:44 85.8 °F 73.1 °F 29.97 in SSW 2 mph 6.9 mph 65.9% 0.00 in 650 W/m2
09:49 86.1 °F 73.2 °F 29.97 in SSW 2.1 mph 5.8 mph 65.5% 0.00 in 666 W/m2
09:54 86.2 °F 73.4 °F 29.97 in WSW 4 mph 9.2 mph 65.9% 0.00 in 679 W/m2
09:59 86.6 °F 73.1 °F 29.97 in SW 3.8 mph 9.2 mph 64.2% 0.00 in 691 W/m2
10:04 86.9 °F 73.2 °F 29.97 in SW 3.8 mph 9.2 mph 64% 0.00 in 694 W/m2
10:09 87 °F 73.2 °F 29.97 in SSW 5.5 mph 10.3 mph 63.8% 0.00 in 707 W/m2
10:14 87.4 °F 73.6 °F 29.97 in SW 2.1 mph 10.3 mph 63.6% 0.00 in 721 W/m2
10:19 87.3 °F 73.3 °F 29.96 in West 2.4 mph 8.1 mph 63.4% 0.00 in 731 W/m2
10:24 87.2 °F 73.3 °F 29.97 in WSW 4.6 mph 9.2 mph 63.5% 0.00 in 742 W/m2
10:29 87.6 °F 73.6 °F 29.97 in WSW 5 mph 9.2 mph 63.3% 0.00 in 749 W/m2
10:34 88.4 °F 74.2 °F 29.97 in WNW 4 mph 8.1 mph 62.9% 0.00 in 765 W/m2
10:39 88.4 °F 73.6 °F 29.96 in West 3.3 mph 8.1 mph 61.9% 0.00 in 780 W/m2
10:44 87.8 °F 72.7 °F 29.96 in West 3.7 mph 8.1 mph 61% 0.00 in 786 W/m2
10:49 88.3 °F 74.4 °F 29.96 in WSW 6.5 mph 10.3 mph 63.7% 0.00 in 793 W/m2
10:54 88.5 °F 73.5 °F 29.96 in SW 4.7 mph 10.3 mph 61.5% 0.00 in 803 W/m2
10:59 88.1 °F 73 °F 29.96 in SW 4.9 mph 11.5 mph 61% 0.00 in 802 W/m2
11:04 88.5 °F 73.4 °F 29.96 in SW 5.6 mph 11.5 mph 61.2% 0.00 in 819 W/m2
11:09 89.2 °F 74.4 °F 29.97 in NW 3.2 mph 9.2 mph 61.7% 0.00 in 830 W/m2
11:14 88.8 °F 73.8 °F 29.96 in WNW 2.4 mph 8.1 mph 61.3% 0.00 in 863 W/m2
11:19 88.6 °F 72.4 °F 29.96 in SW 5.7 mph 11.5 mph 59% 0.00 in 896 W/m2
11:24 89 °F 73.1 °F 29.96 in NNW 7.5 mph 11.5 mph 59.4% 0.00 in 916 W/m2
11:29 89.8 °F 73.5 °F 29.96 in WNW 4.8 mph 11.5 mph 58.8% 0.00 in 923 W/m2
11:34 88.7 °F 71.7 °F 29.96 in West 3.4 mph 10.3 mph 57.3% 0.00 in 192 W/m2
11:39 88.4 °F 73.4 °F 29.96 in WNW 5.4 mph 9.2 mph 61.4% 0.00 in 921 W/m2
11:44 89.3 °F 72.3 °F 29.96 in WSW 5.2 mph 10.3 mph 57.6% 0.00 in 925 W/m2
11:49 90.3 °F 72.7 °F 29.96 in SW 6.6 mph 10.3 mph 56.4% 0.00 in 919 W/m2
11:54 91.1 °F 73.3 °F 29.95 in West 3.7 mph 10.3 mph 56.2% 0.00 in 905 W/m2
11:59 90.9 °F 72.6 °F 29.95 in WSW 5.5 mph 11.5 mph 55.2% 0.00 in 912 W/m2
12:04 90.1 °F 70.1 °F 29.95 in WSW 6.2 mph 11.5 mph 51.8% 0.00 in 919 W/m2
12:09 90.8 °F 72.7 °F 29.95 in WSW 5.5 mph 11.5 mph 55.6% 0.00 in 942 W/m2
12:14 91.5 °F 72.8 °F 29.96 in WNW 3 mph 10.3 mph 54.6% 0.00 in 972 W/m2
12:19 91.3 °F 72.8 °F 29.95 in West 6.5 mph 11.5 mph 55% 0.00 in 972 W/m2
12:24 91.1 °F 73.4 °F 29.95 in NW 5.1 mph 11.5 mph 56.4% 0.00 in 967 W/m2
12:29 91.1 °F 73 °F 29.95 in WNW 4.4 mph 9.2 mph 55.6% 0.00 in 956 W/m2
12:34 91.2 °F 73.3 °F 29.95 in West 4.7 mph 10.3 mph 56.1% 0.00 in 1013 W/m2
12:39 91 °F 71.4 °F 29.95 in SW 7.6 mph 11.5 mph 52.9% 0.00 in 1013 W/m2
12:44 91.2 °F 71.6 °F 29.94 in SW 6.8 mph 11.5 mph 52.8% 0.00 in 986 W/m2
12:49 91.1 °F 71.2 °F 29.94 in SW 5.9 mph 10.3 mph 52.4% 0.00 in 974 W/m2
12:54 90.8 °F 71 °F 29.94 in WSW 4.7 mph 10.3 mph 52.4% 0.00 in 967 W/m2
12:59 91 °F 72.2 °F 29.94 in SW 5.3 mph 17.2 mph 54.3% 0.00 in 965 W/m2
13:04 91.5 °F 70.9 °F 29.94 in West 6.4 mph 17.2 mph 51.2% 0.00 in 979 W/m2
13:09 91.1 °F 70.6 °F 29.93 in SW 4.6 mph 12.6 mph 51.2% 0.00 in 974 W/m2
13:14 90.7 °F 71.2 °F 29.93 in WSW 7.3 mph 12.6 mph 52.9% 0.00 in 972 W/m2
13:19 92.1 °F 71.5 °F 29.93 in SW 4.3 mph 12.6 mph 51.3% 0.00 in 983 W/m2
13:24 92.8 °F 73 °F 29.93 in SW 8.1 mph 14.9 mph 52.8% 0.00 in 1002 W/m2
13:29 92.7 °F 73 °F 29.92 in WSW 6.8 mph 14.9 mph 52.8% 0.00 in 993 W/m2
13:34 92.3 °F 72.3 °F 29.92 in SW 7.1 mph 12.6 mph 52.2% 0.00 in 995 W/m2
13:39 92.6 °F 72.1 °F 29.92 in SW 6.3 mph 12.6 mph 51.5% 0.00 in 981 W/m2
13:44 91.3 °F 70.7 °F 29.92 in SW 4.4 mph 11.5 mph 51.1% 0.00 in 979 W/m2
13:49 91.1 °F 70.7 °F 29.92 in SW 8.2 mph 12.6 mph 51.4% 0.00 in 951 W/m2
13:54 91.8 °F 69.9 °F 29.92 in SW 7.1 mph 12.6 mph 49% 0.00 in 942 W/m2
13:59 92.1 °F 67.8 °F 29.92 in SW 8.6 mph 12.6 mph 45.1% 0.00 in 939 W/m2
14:04 92.3 °F 68.4 °F 29.92 in SW 6.1 mph 12.6 mph 45.8% 0.00 in 935 W/m2
14:09 92.9 °F 68.8 °F 29.92 in SSW 5.2 mph 10.3 mph 45.6% 0.00 in 921 W/m2
14:14 92.5 °F 67.4 °F 29.93 in SW 6.1 mph 10.3 mph 43.9% 0.00 in 921 W/m2
14:19 91.9 °F 66.4 °F 29.92 in SW 5.2 mph 10.3 mph 43.3% 0.00 in 921 W/m2
14:24 91.7 °F 67.8 °F 29.92 in SW 5.8 mph 9.2 mph 45.7% 0.00 in 912 W/m2
14:29 91.6 °F 65.7 °F 29.92 in SW 3.9 mph 11.5 mph 42.6% 0.00 in 909 W/m2
14:34 92.2 °F 66.8 °F 29.92 in SW 4.3 mph 11.5 mph 43.4% 0.00 in 898 W/m2
14:39 92.8 °F 66.4 °F 29.92 in WSW 7.2 mph 12.6 mph 42.1% 0.00 in 898 W/m2
14:44 93 °F 66.6 °F 29.92 in SW 7.2 mph 12.6 mph 42.1% 0.00 in 902 W/m2
14:49 93 °F 67.2 °F 29.92 in WNW 3.7 mph 11.5 mph 43% 0.00 in 893 W/m2
14:54 93.3 °F 68.1 °F 29.92 in SSW 5.7 mph 10.3 mph 43.9% 0.00 in 884 W/m2
14:59 92.7 °F 67.8 °F 29.92 in West 3.5 mph 10.3 mph 44.3% 0.00 in 874 W/m2
15:04 93.1 °F 69 °F 29.92 in SSW 4.6 mph 9.2 mph 45.6% 0.00 in 881 W/m2
15:09 93.3 °F 66.9 °F 29.91 in WSW 4.4 mph 11.5 mph 42.2% 0.00 in 874 W/m2
15:14 93.9 °F 70.3 °F 29.91 in West 3.9 mph 11.5 mph 46.6% 0.00 in 860 W/m2
15:19 93.7 °F 68.3 °F 29.91 in SW 3.3 mph 11.5 mph 43.7% 0.00 in 858 W/m2
15:24 93.8 °F 68.6 °F 29.91 in SSW 2.6 mph 9.2 mph 44% 0.00 in 826 W/m2
15:29 93.4 °F 70.2 °F 29.91 in WNW 4.6 mph 8.1 mph 47.1% 0.00 in 809 W/m2
15:34 94.2 °F 71.5 °F 29.90 in NW 2.9 mph 9.2 mph 48% 0.00 in 796 W/m2
15:39 93.6 °F 69.8 °F 29.90 in SSW 4 mph 10.3 mph 46.3% 0.00 in 788 W/m2
15:44 93 °F 70.6 °F 29.90 in SW 5.4 mph 11.5 mph 48.4% 0.00 in 772 W/m2
15:49 93.6 °F 68.2 °F 29.90 in SSW 3 mph 11.5 mph 43.7% 0.00 in 758 W/m2
15:54 93.3 °F 65.8 °F 29.90 in SW 2.4 mph 9.2 mph 40.6% 0.00 in 751 W/m2
15:59 93.2 °F 69.3 °F 29.89 in SSW 3.4 mph 8.1 mph 46% 0.00 in 740 W/m2
16:04 92.8 °F 72.7 °F 29.89 in SSE 3.6 mph 8.1 mph 52.2% 0.00 in 722 W/m2
16:09 92.2 °F 73.4 °F 29.89 in SE 2.4 mph 6.9 mph 54.5% 0.00 in 712 W/m2
16:14 92.5 °F 72 °F 29.88 in South 3 mph 9.2 mph 51.5% 0.00 in 703 W/m2
16:19 91.8 °F 71.6 °F 29.88 in SSW 2.9 mph 9.2 mph 52% 0.00 in 686 W/m2
16:24 91.9 °F 72.1 °F 29.88 in SE 2.9 mph 8.1 mph 52.6% 0.00 in 664 W/m2
16:29 92.3 °F 70.7 °F 29.88 in WSW 2.2 mph 6.9 mph 49.6% 0.00 in 656 W/m2
16:34 91.6 °F 69.1 °F 29.88 in SW 3.8 mph 9.2 mph 47.9% 0.00 in 643 W/m2
16:39 92.3 °F 68.6 °F 29.88 in SSW 5.6 mph 11.5 mph 46.1% 0.00 in 624 W/m2
16:44 93.2 °F 69.5 °F 29.88 in SSW 6.2 mph 11.5 mph 46.2% 0.00 in 613 W/m2
16:49 93.1 °F 68.1 °F 29.88 in SW 6.2 mph 11.5 mph 44.2% 0.00 in 591 W/m2
16:54 93 °F 68.3 °F 29.88 in WSW 5.2 mph 9.2 mph 44.7% 0.00 in 587 W/m2
16:59 92.6 °F 67.5 °F 29.88 in SW 5.4 mph 10.3 mph 44% 0.00 in 570 W/m2
17:04 92.3 °F 68.2 °F 29.87 in SW 5 mph 10.3 mph 45.5% 0.00 in 552 W/m2
17:09 92.2 °F 68.7 °F 29.87 in SW 5.9 mph 10.3 mph 46.4% 0.00 in 536 W/m2
17:14 92.1 °F 67.8 °F 29.87 in WSW 4.8 mph 10.3 mph 45.1% 0.00 in 526 W/m2
17:19 92 °F 68.2 °F 29.87 in SSW 6.2 mph 9.2 mph 45.9% 0.00 in 513 W/m2
17:24 92.4 °F 68.9 °F 29.87 in SW 4.9 mph 9.2 mph 46.5% 0.00 in 494 W/m2
17:29 92.5 °F 69.3 °F 29.87 in SW 4.6 mph 9.2 mph 47% 0.00 in 483 W/m2
17:34 92.2 °F 68.1 °F 29.87 in SW 3.5 mph 8.1 mph 45.5% 0.00 in 469 W/m2
17:39 91.9 °F 68 °F 29.86 in SW 5 mph 9.2 mph 45.6% 0.00 in 454 W/m2
17:44 91.5 °F 67.4 °F 29.86 in WSW 4.2 mph 9.2 mph 45.3% 0.00 in 434 W/m2
17:49 91.3 °F 68.4 °F 29.86 in SSW 4.3 mph 9.2 mph 47.3% 0.00 in 422 W/m2
17:54 91.7 °F 69 °F 29.86 in SSW 3.8 mph 8.1 mph 47.5% 0.00 in 401 W/m2
17:59 91.9 °F 69.5 °F 29.86 in SSW 6 mph 9.2 mph 48.2% 0.00 in 385 W/m2
18:03 91.9 °F 69.4 °F 29.86 in South 3.7 mph 9.2 mph 48% 0.00 in 374 W/m2
Peotne Weather
Compliments of Weather Underground - 4 mb